Neapolis, Ohio
Current Conditions -  °F | °C
As of 8:52 AM on Thursday 18 Dec 2014 (Local Time) from KTOL Reporting Station
Overcast Overcast  
Wind Chill: 20°   Ceiling: 2600
Heat Index: 29°   Visibility: 10mi
Dew Point: 22°   Wind: 10mph
Humidity: 75%   Direction: 250°WSW
Pressure: 30.22"   Gusts: NA
Location:  41.49°N, 83.87°W
Report Text: KTOL 181352Z 25009KT 10SM OVC026 M02/M06 A3022 RMK AO2 SLP244 T10171056
Loading
Personal Weather Stations






























Interactive Weather Map New forecast layout! Learn more

10-Day Weather Forecast

Advertisements
Track Severe Weather on mobile